createdAt,value
2019-01-11T00:00:12.475Z,1.00
2019-01-11T00:02:43.346Z,1.00
2019-01-11T00:05:14.135Z,0.90
2019-01-11T00:07:44.936Z,1.17
2019-01-11T00:10:16.006Z,1.10
2019-01-11T00:12:47.043Z,1.07
2019-01-11T00:15:17.784Z,1.03
2019-01-11T00:17:48.993Z,1.27
2019-01-11T00:20:19.775Z,1.17
2019-01-11T00:22:50.587Z,1.13
2019-01-11T00:25:21.318Z,1.13
2019-01-11T00:27:52.269Z,1.17
2019-01-11T00:30:24.064Z,1.00
2019-01-11T00:32:54.934Z,1.50
2019-01-11T00:35:25.679Z,1.10
2019-01-11T00:37:56.794Z,1.40
2019-01-11T00:40:27.612Z,1.30
2019-01-11T00:42:58.824Z,1.40
2019-01-11T00:45:29.618Z,1.40
2019-01-11T00:48:00.352Z,1.20
2019-01-11T00:50:31.860Z,1.50
2019-01-11T00:53:02.466Z,2.60
2019-01-11T00:55:33.550Z,4.43
2019-01-11T00:58:04.637Z,1.47
2019-01-11T01:00:35.626Z,1.17
2019-01-11T01:03:07.286Z,1.50
2019-01-11T01:05:38.176Z,1.40
2019-01-11T01:08:08.942Z,1.20
2019-01-11T01:10:40.952Z,1.40
2019-01-11T01:13:11.988Z,1.30
2019-01-11T01:15:43.310Z,1.40
2019-01-11T01:18:14.083Z,1.30
2019-01-11T01:20:45.268Z,1.20
2019-01-11T01:23:16.197Z,5.23
2019-01-11T01:25:47.114Z,1.77
2019-01-11T01:28:18.197Z,1.87
2019-01-11T01:30:48.981Z,1.60
2019-01-11T01:33:20.088Z,1.50
2019-01-11T01:35:51.097Z,1.60
2019-01-11T01:38:22.111Z,1.50
2019-01-11T01:40:52.853Z,1.93
2019-01-11T01:43:24.449Z,2.30
2019-01-11T01:45:55.345Z,2.37
2019-01-11T01:48:26.421Z,1.83
2019-01-11T01:50:58.338Z,4.03
2019-01-11T01:53:29.047Z,3.83
2019-01-11T01:55:59.939Z,4.30
2019-01-11T01:58:30.947Z,3.83
2019-01-11T02:01:03.161Z,3.00
2019-01-11T02:03:34.037Z,1.93
2019-01-11T02:06:04.819Z,5.70
2019-01-11T02:08:35.759Z,2.50
2019-01-11T02:11:07.026Z,3.17
2019-01-11T02:13:37.686Z,3.23
2019-01-11T02:16:08.475Z,4.97
2019-01-11T02:18:39.613Z,3.93
2019-01-11T02:21:10.543Z,7.00
2019-01-11T02:23:41.457Z,7.23
2019-01-11T02:26:12.309Z,4.43
2019-01-11T02:28:43.223Z,17.47
2019-01-11T02:31:15.637Z,9.63
2019-01-11T02:33:46.521Z,15.43
2019-01-11T02:36:17.219Z,5.40
2019-01-11T02:38:48.653Z,5.03
2019-01-11T02:41:19.584Z,5.03
2019-01-11T02:43:50.503Z,4.63
2019-01-11T02:46:21.425Z,7.80
2019-01-11T02:48:52.089Z,8.63
2019-01-11T02:51:22.929Z,14.33
2019-01-11T02:53:54.104Z,9.60
2019-01-11T02:56:25.029Z,10.70
2019-01-11T02:58:56.283Z,6.60
2019-01-11T03:01:27.314Z,18.33
2019-01-11T03:03:58.353Z,25.90
2019-01-11T03:06:29.114Z,21.80
2019-01-11T03:08:59.868Z,15.73
2019-01-11T03:11:30.558Z,15.37
2019-01-11T03:14:01.633Z,14.87
2019-01-11T03:16:32.611Z,30.50
2019-01-11T03:19:03.791Z,26.13
2019-01-11T03:21:34.801Z,23.97
2019-01-11T03:24:05.799Z,21.70
2019-01-11T03:26:37.307Z,24.20
2019-01-11T03:29:08.585Z,14.70
2019-01-11T03:31:39.389Z,26.90
2019-01-11T03:34:10.269Z,39.37
2019-01-11T03:36:41.043Z,20.20
2019-01-11T03:39:11.969Z,24.33
2019-01-11T03:41:44.621Z,24.60
2019-01-11T03:44:15.374Z,28.27
2019-01-11T03:46:46.278Z,25.30
2019-01-11T03:49:16.997Z,23.97
2019-01-11T03:51:48.108Z,24.73
2019-01-11T03:54:18.943Z,21.53
2019-01-11T03:56:49.684Z,20.30
2019-01-11T03:59:20.424Z,28.97
2019-01-11T04:01:51.253Z,23.97
2019-01-11T04:04:22.416Z,33.23
2019-01-11T04:06:53.345Z,24.97
2019-01-11T04:09:24.912Z,36.63
2019-01-11T04:11:55.897Z,23.63
2019-01-11T04:14:26.865Z,28.30
2019-01-11T04:16:58.023Z,26.17
2019-01-11T04:19:28.902Z,15.07
2019-01-11T04:22:01.478Z,26.33
2019-01-11T04:24:36.386Z,19.97
2019-01-11T04:27:07.196Z,26.40
2019-01-11T04:29:38.082Z,17.50
2019-01-11T04:32:09.135Z,20.57
2019-01-11T04:34:40.016Z,22.90
2019-01-11T04:37:10.918Z,27.87
2019-01-11T04:39:41.895Z,32.20
2019-01-11T04:42:13.069Z,23.47
2019-01-11T04:44:44.281Z,33.10
2019-01-11T04:47:15.555Z,19.97
2019-01-11T04:49:46.667Z,15.63
2019-01-11T04:52:17.595Z,22.83
2019-01-11T04:54:48.392Z,19.90
2019-01-11T04:57:19.702Z,17.13
2019-01-11T04:59:50.619Z,36.47
2019-01-11T05:02:21.301Z,28.47
2019-01-11T05:04:53.349Z,25.70
2019-01-11T05:07:24.467Z,32.63
2019-01-11T05:09:55.577Z,20.37
2019-01-11T05:12:26.532Z,19.83
2019-01-11T05:14:57.577Z,25.60
2019-01-11T05:17:28.567Z,26.03
2019-01-11T05:19:59.562Z,16.20
2019-01-11T05:22:30.654Z,29.27
2019-01-11T05:25:01.452Z,30.37
2019-01-11T05:27:32.234Z,17.90
2019-01-11T05:30:03.079Z,16.30
2019-01-11T05:32:34.043Z,28.67
2019-01-11T05:35:06.450Z,19.50
2019-01-11T05:37:38.743Z,25.93
2019-01-11T05:40:17.672Z,29.03
2019-01-11T05:42:48.981Z,24.37
2019-01-11T05:45:19.759Z,23.37
2019-01-11T05:47:50.487Z,29.27
2019-01-11T05:50:24.246Z,28.63
2019-01-11T05:52:53.808Z,21.17
2019-01-11T05:55:32.820Z,25.53
2019-01-11T05:58:11.732Z,23.63
2019-01-11T06:00:42.633Z,21.37
2019-01-11T06:03:13.908Z,16.83
2019-01-11T06:05:45.048Z,23.33
2019-01-11T06:08:18.790Z,19.50
2019-01-11T06:10:49.873Z,18.60
2019-01-11T06:13:20.846Z,30.57
2019-01-11T06:15:51.474Z,37.53
2019-01-11T06:18:22.226Z,27.40
2019-01-11T06:20:52.994Z,38.50
2019-01-11T06:23:24.044Z,38.03
2019-01-11T06:25:54.658Z,34.23
2019-01-11T06:28:25.580Z,26.63
2019-01-11T06:30:56.888Z,32.07
2019-01-11T06:33:27.774Z,37.07
2019-01-11T06:35:59.380Z,22.53
2019-01-11T06:38:30.137Z,31.57
2019-01-11T06:41:01.234Z,22.53
2019-01-11T06:43:32.058Z,26.70
2019-01-11T06:46:02.994Z,21.03
2019-01-11T06:48:35.406Z,25.17
2019-01-11T06:51:06.217Z,24.60
2019-01-11T06:53:37.411Z,28.23
2019-01-11T06:56:08.187Z,29.40
2019-01-11T06:58:39.100Z,26.17
2019-01-11T07:01:10.090Z,20.27
2019-01-11T07:03:41.450Z,19.83
2019-01-11T07:06:12.450Z,39.00
2019-01-11T07:08:43.441Z,37.30
2019-01-11T07:11:14.475Z,15.50
2019-01-11T07:13:45.688Z,25.73
2019-01-11T07:16:16.658Z,17.70
2019-01-11T07:18:47.412Z,21.53
2019-01-11T07:21:18.638Z,18.80
2019-01-11T07:23:49.400Z,28.83
2019-01-11T07:26:20.265Z,16.07
2019-01-11T07:28:51.521Z,17.57
2019-01-11T07:31:22.351Z,18.17
2019-01-11T07:33:53.840Z,11.40
2019-01-11T07:36:29.615Z,10.23
2019-01-11T07:39:00.820Z,14.07
2019-01-11T07:41:32.784Z,15.37
2019-01-11T07:44:03.665Z,11.73
2019-01-11T07:46:34.871Z,18.03
2019-01-11T07:49:05.646Z,17.50
2019-01-11T07:51:36.747Z,16.80
2019-01-11T07:54:07.604Z,14.83
2019-01-11T07:56:38.457Z,8.13
2019-01-11T07:59:09.419Z,18.47
2019-01-11T08:01:40.231Z,14.70
2019-01-11T08:04:11.221Z,18.33
2019-01-11T08:06:42.176Z,7.57
2019-01-11T08:09:12.985Z,16.30
2019-01-11T08:11:43.895Z,10.10
2019-01-11T08:14:17.717Z,11.30
2019-01-11T08:16:48.999Z,8.03
2019-01-11T08:19:20.137Z,4.93
2019-01-11T08:21:50.933Z,9.77
2019-01-11T08:24:21.938Z,11.87
2019-01-11T08:26:53.753Z,3.77
2019-01-11T08:29:25.846Z,9.50
2019-01-11T08:31:57.300Z,6.73
2019-01-11T08:34:27.994Z,13.07
2019-01-11T08:36:58.742Z,6.03
2019-01-11T08:39:32.545Z,9.80
2019-01-11T08:42:02.114Z,5.07
2019-01-11T08:44:33.167Z,11.40
2019-01-11T08:47:04.199Z,9.37
2019-01-11T08:49:34.845Z,10.30
2019-01-11T08:52:05.657Z,19.03
2019-01-11T08:54:36.865Z,11.90
2019-01-11T08:57:08.128Z,7.90
2019-01-11T08:59:39.129Z,7.40
2019-01-11T09:02:09.817Z,8.60
2019-01-11T09:04:40.710Z,10.37
2019-01-11T09:07:11.843Z,5.13
2019-01-11T09:09:42.979Z,6.00
2019-01-11T09:12:13.878Z,8.53
2019-01-11T09:14:48.491Z,9.00
2019-01-11T09:17:19.684Z,5.67
2019-01-11T09:19:51.056Z,4.30
2019-01-11T09:22:22.405Z,7.77
2019-01-11T09:24:53.210Z,9.90
2019-01-11T09:27:24.345Z,9.13
2019-01-11T09:29:55.614Z,4.97
2019-01-11T09:32:26.518Z,6.57
2019-01-11T09:34:57.617Z,8.10
2019-01-11T09:37:28.483Z,5.80
2019-01-11T09:39:59.464Z,8.90
2019-01-11T09:42:30.456Z,14.57
2019-01-11T09:45:01.480Z,5.60
2019-01-11T09:47:32.142Z,10.43
2019-01-11T09:50:03.206Z,5.73
2019-01-11T09:52:34.472Z,7.80
2019-01-11T09:55:06.650Z,11.37
2019-01-11T09:57:37.810Z,5.60
2019-01-11T10:00:14.610Z,3.10
2019-01-11T10:02:46.644Z,12.70
2019-01-11T10:05:17.296Z,8.93
2019-01-11T10:07:48.189Z,21.43
2019-01-11T10:10:19.364Z,12.20
2019-01-11T10:12:50.378Z,31.80
2019-01-11T10:15:21.224Z,65.27
2019-01-11T10:17:52.583Z,68.30
2019-01-11T10:20:23.571Z,75.23
2019-01-11T10:22:54.365Z,61.17
2019-01-11T10:25:25.126Z,61.97
2019-01-11T10:27:55.921Z,32.37
2019-01-11T10:30:27.141Z,21.10
2019-01-11T10:32:57.825Z,29.40
2019-01-11T10:35:28.697Z,10.90
2019-01-11T10:37:59.754Z,11.13
2019-01-11T10:40:30.731Z,14.60
2019-01-11T10:43:01.848Z,6.87
2019-01-11T10:45:32.747Z,9.53
2019-01-11T10:48:03.873Z,40.43
2019-01-11T10:50:34.759Z,249.17
2019-01-11T10:53:05.657Z,213.20
2019-01-11T10:55:36.765Z,188.83
2019-01-11T10:58:07.529Z,159.50
2019-01-11T11:00:38.514Z,117.47
2019-01-11T11:03:10.179Z,87.60
2019-01-11T11:05:41.429Z,99.90
2019-01-11T11:08:12.300Z,81.10
2019-01-11T11:10:43.179Z,72.40
2019-01-11T11:13:14.348Z,65.87
2019-01-11T11:15:46.847Z,56.33
2019-01-11T11:18:17.700Z,49.37
2019-01-11T11:20:48.696Z,50.80
2019-01-11T11:23:19.558Z,45.10
2019-01-11T11:25:50.660Z,41.27
2019-01-11T11:28:21.499Z,27.40
2019-01-11T11:30:52.283Z,32.33
2019-01-11T11:33:23.389Z,29.97
2019-01-11T11:35:54.389Z,27.27
2019-01-11T11:38:25.440Z,31.50
2019-01-11T11:40:56.778Z,21.40
2019-01-11T11:43:27.720Z,19.40
2019-01-11T11:45:58.839Z,30.67
2019-01-11T11:48:29.765Z,19.07
2019-01-11T11:51:00.885Z,16.03
2019-01-11T11:53:31.541Z,26.47
2019-01-11T11:56:02.605Z,16.50
2019-01-11T11:58:33.425Z,24.93
2019-01-11T12:01:06.883Z,24.50
2019-01-11T12:03:37.683Z,24.77
2019-01-11T12:06:08.737Z,30.73
2019-01-11T12:08:39.526Z,23.43
2019-01-11T12:11:10.314Z,25.97
2019-01-11T12:13:41.306Z,15.77
2019-01-11T12:16:12.165Z,26.67
2019-01-11T12:18:43.027Z,32.60
2019-01-11T12:21:14.290Z,36.07
2019-01-11T12:23:46.251Z,18.47
2019-01-11T12:26:17.329Z,25.50
2019-01-11T12:28:47.977Z,28.23
2019-01-11T12:31:18.769Z,22.77
2019-01-11T12:33:49.523Z,25.37
2019-01-11T12:36:20.622Z,25.50
2019-01-11T12:38:51.449Z,31.73
2019-01-11T12:41:22.499Z,20.00
2019-01-11T12:43:53.480Z,32.23
2019-01-11T12:46:24.390Z,22.50
2019-01-11T12:48:55.292Z,25.03
2019-01-11T12:51:26.152Z,30.83
2019-01-11T12:53:57.104Z,34.30
2019-01-11T12:56:28.590Z,28.60
2019-01-11T12:58:59.387Z,32.00
2019-01-11T13:01:30.606Z,31.03
2019-01-11T13:04:01.604Z,44.93
2019-01-11T13:06:32.384Z,27.73
2019-01-11T13:09:03.387Z,23.83
2019-01-11T13:11:34.262Z,31.53
2019-01-11T13:14:05.161Z,25.50
2019-01-11T13:16:36.119Z,40.40
2019-01-11T13:19:07.197Z,40.63
2019-01-11T13:21:38.550Z,28.00
2019-01-11T13:24:09.801Z,48.23
2019-01-11T13:26:40.580Z,39.03
2019-01-11T13:29:11.676Z,30.30
2019-01-11T13:31:42.458Z,30.43
2019-01-11T13:34:13.534Z,30.87
2019-01-11T13:36:44.333Z,39.07
2019-01-11T13:39:15.303Z,43.43
2019-01-11T13:41:46.782Z,31.50
2019-01-11T13:44:17.606Z,32.93
2019-01-11T13:46:48.803Z,37.10
2019-01-11T13:49:19.665Z,41.30
2019-01-11T13:51:50.591Z,35.10
2019-01-11T13:54:21.981Z,32.93
2019-01-11T13:56:52.936Z,33.50
2019-01-11T13:59:24.093Z,55.63
2019-01-11T14:01:54.982Z,43.67
2019-01-11T14:04:25.989Z,41.93
2019-01-11T14:06:58.131Z,45.47
2019-01-11T14:09:29.374Z,46.93
2019-01-11T14:12:00.273Z,50.57
2019-01-11T14:14:31.325Z,52.60
2019-01-11T14:17:03.266Z,44.57
2019-01-11T14:19:34.300Z,57.57
2019-01-11T14:22:05.102Z,39.33
2019-01-11T14:24:35.971Z,39.40
2019-01-11T14:27:07.029Z,69.93
2019-01-11T14:29:37.931Z,67.67
2019-01-11T14:32:08.902Z,53.30
2019-01-11T14:34:41.462Z,58.80
2019-01-11T14:37:12.384Z,47.83
2019-01-11T14:39:43.309Z,129.90
2019-01-11T14:42:15.903Z,72.00
2019-01-11T14:44:46.839Z,430.73
2019-01-11T14:47:18.346Z,303.97
2019-01-11T14:49:49.796Z,223.40
2019-01-11T14:52:21.409Z,181.63
2019-01-11T14:54:52.593Z,149.03
2019-01-11T14:57:23.377Z,127.03
2019-01-11T14:59:53.991Z,106.17
2019-01-11T15:02:25.200Z,109.10
2019-01-11T15:04:56.549Z,92.80
2019-01-11T15:07:27.324Z,74.87
2019-01-11T15:09:58.632Z,72.07
2019-01-11T15:12:29.398Z,70.57
2019-01-11T15:15:00.318Z,70.40
2019-01-11T15:17:32.387Z,79.73
2019-01-11T15:20:03.619Z,62.93
2019-01-11T15:22:34.649Z,44.33
2019-01-11T15:25:07.052Z,46.83
2019-01-11T15:27:38.158Z,59.50
2019-01-11T15:30:11.794Z,85.20
2019-01-11T15:32:42.786Z,58.33
2019-01-11T15:35:14.150Z,63.37
2019-01-11T15:37:45.713Z,65.07
2019-01-11T15:40:19.979Z,70.70
2019-01-11T15:42:50.915Z,58.97
2019-01-11T15:45:22.003Z,52.97
2019-01-11T15:47:52.915Z,51.40
2019-01-11T15:50:43.310Z,46.33
2019-01-11T15:53:14.411Z,69.60
2019-01-11T15:55:45.406Z,55.57
2019-01-11T15:58:16.403Z,53.73
2019-01-11T16:00:49.068Z,71.23
2019-01-11T16:03:20.282Z,62.37
2019-01-11T16:05:53.626Z,54.63
2019-01-11T16:08:25.366Z,72.40
2019-01-11T16:11:04.765Z,67.80
2019-01-11T16:13:39.118Z,68.47
2019-01-11T16:16:13.002Z,67.90
2019-01-11T16:18:43.812Z,56.27
2019-01-11T16:21:14.664Z,57.10
2019-01-11T16:23:45.452Z,45.73
2019-01-11T16:26:16.554Z,60.70
2019-01-11T16:28:47.380Z,60.97
2019-01-11T16:31:18.276Z,63.27
2019-01-11T16:33:49.675Z,55.37
2019-01-11T16:36:20.894Z,59.30
2019-01-11T16:38:51.845Z,54.60
2019-01-11T16:41:22.675Z,53.73
2019-01-11T16:43:53.623Z,59.23
2019-01-11T16:46:24.521Z,52.30
2019-01-11T16:48:55.307Z,59.03
2019-01-11T16:51:26.071Z,51.23
2019-01-11T16:53:57.089Z,60.53
2019-01-11T16:56:27.917Z,51.40
2019-01-11T16:58:59.101Z,48.63
2019-01-11T17:01:29.976Z,76.53
2019-01-11T17:04:01.108Z,67.07
2019-01-11T17:06:31.998Z,58.77
2019-01-11T17:09:02.829Z,52.30
2019-01-11T17:11:33.621Z,61.20
2019-01-11T17:14:04.838Z,59.37
2019-01-11T17:16:36.617Z,43.73
2019-01-11T17:19:07.564Z,72.40
2019-01-11T17:21:38.495Z,63.73
2019-01-11T17:24:09.413Z,55.30
2019-01-11T17:26:40.390Z,70.03
2019-01-11T17:29:11.625Z,53.07
2019-01-11T17:31:42.479Z,44.57
2019-01-11T17:34:13.415Z,78.20
2019-01-11T17:36:44.470Z,73.03
2019-01-11T17:39:15.482Z,60.40
2019-01-11T17:41:46.634Z,51.30
2019-01-11T17:44:17.664Z,45.60
2019-01-11T17:46:48.696Z,72.53
2019-01-11T17:49:19.679Z,69.13
2019-01-11T17:51:50.552Z,46.90
2019-01-11T17:54:21.589Z,44.80
2019-01-11T17:56:52.760Z,69.23
2019-01-11T17:59:24.066Z,68.70
2019-01-11T18:01:54.956Z,60.30
2019-01-11T18:04:25.922Z,63.33
2019-01-11T18:06:56.969Z,67.73
2019-01-11T18:09:27.736Z,77.47
2019-01-11T18:11:58.375Z,64.00
2019-01-11T18:14:29.447Z,75.13
2019-01-11T18:17:00.582Z,74.20
2019-01-11T18:19:31.387Z,58.97
2019-01-11T18:22:02.213Z,59.03
2019-01-11T18:24:32.974Z,75.03
2019-01-11T18:27:05.200Z,59.90
2019-01-11T18:29:37.139Z,60.77
2019-01-11T18:32:08.014Z,63.73
2019-01-11T18:34:38.971Z,54.13
2019-01-11T18:37:09.986Z,49.27
2019-01-11T18:39:41.054Z,75.97
2019-01-11T18:42:11.969Z,45.97
2019-01-11T18:44:43.279Z,54.93
2019-01-11T18:47:14.134Z,52.17
2019-01-11T18:49:45.572Z,64.23
2019-01-11T18:52:16.546Z,48.90
2019-01-11T18:54:47.481Z,63.57
2019-01-11T18:57:18.265Z,49.23
2019-01-11T18:59:49.197Z,40.50
2019-01-11T19:02:20.091Z,71.30
2019-01-11T19:04:50.989Z,52.33
2019-01-11T19:07:21.975Z,54.53
2019-01-11T19:09:52.852Z,45.07
2019-01-11T19:12:24.015Z,49.50
2019-01-11T19:14:55.203Z,33.27
2019-01-11T19:17:26.293Z,54.20
2019-01-11T19:19:57.284Z,48.77
2019-01-11T19:22:28.675Z,46.83
2019-01-11T19:24:59.884Z,34.43
2019-01-11T19:27:30.412Z,58.10
2019-01-11T19:30:01.399Z,46.87
2019-01-11T19:32:32.303Z,45.53
2019-01-11T19:35:03.115Z,52.93
2019-01-11T19:37:33.989Z,46.67
2019-01-11T19:40:07.816Z,45.83
2019-01-11T19:42:38.833Z,52.90
2019-01-11T19:45:11.895Z,53.20
2019-01-11T19:47:42.739Z,66.70
2019-01-11T19:50:18.504Z,40.53
2019-01-11T19:52:50.295Z,49.93
2019-01-11T19:55:21.434Z,58.77
2019-01-11T19:57:52.453Z,44.03
2019-01-11T20:00:25.428Z,55.50
2019-01-11T20:02:56.485Z,54.40
2019-01-11T20:05:27.516Z,41.13
2019-01-11T20:07:58.413Z,39.63
2019-01-11T20:10:31.033Z,47.70
2019-01-11T20:13:02.516Z,47.03
2019-01-11T20:15:33.354Z,52.77
2019-01-11T20:18:04.731Z,51.57
2019-01-11T20:20:35.625Z,42.80
2019-01-11T20:23:06.878Z,40.17
2019-01-11T20:25:37.847Z,43.97
2019-01-11T20:28:08.775Z,44.70
2019-01-11T20:30:39.728Z,39.63
2019-01-11T20:33:10.686Z,38.90
2019-01-11T20:35:41.989Z,50.03
2019-01-11T20:38:13.000Z,44.67
2019-01-11T20:40:43.490Z,34.10
2019-01-11T20:43:14.440Z,35.73
2019-01-11T20:45:45.264Z,31.03
2019-01-11T20:48:16.561Z,34.60
2019-01-11T20:50:47.350Z,50.23
2019-01-11T20:53:18.908Z,44.93
2019-01-11T20:55:49.534Z,48.67
2019-01-11T20:58:21.345Z,46.13
2019-01-11T21:00:52.321Z,42.87
2019-01-11T21:03:23.047Z,35.93
2019-01-11T21:05:54.061Z,48.87
2019-01-11T21:08:25.635Z,39.40
2019-01-11T21:10:56.646Z,39.57
2019-01-11T21:13:27.675Z,36.43
2019-01-11T21:15:58.726Z,31.70
2019-01-11T21:18:29.778Z,38.43
2019-01-11T21:21:00.827Z,38.23
2019-01-11T21:23:31.685Z,45.77
2019-01-11T21:26:02.833Z,42.83
2019-01-11T21:28:34.245Z,59.30
2019-01-11T21:31:05.155Z,34.43
2019-01-11T21:34:09.000Z,38.90
2019-01-11T21:36:40.229Z,39.17
2019-01-11T21:39:10.919Z,57.23
2019-01-11T21:41:41.673Z,40.57
2019-01-11T21:44:12.776Z,39.77
2019-01-11T21:46:43.809Z,47.60
2019-01-11T21:49:14.644Z,38.17
2019-01-11T21:51:45.948Z,42.27
2019-01-11T21:54:17.951Z,41.03
2019-01-11T21:56:52.103Z,39.83
2019-01-11T21:59:23.182Z,28.37
2019-01-11T22:01:54.192Z,39.93
2019-01-11T22:04:25.538Z,40.10
2019-01-11T22:06:56.305Z,41.57
2019-01-11T22:09:27.385Z,33.73
2019-01-11T22:11:58.249Z,43.53
2019-01-11T22:14:29.851Z,26.53
2019-01-11T22:17:01.184Z,33.37
2019-01-11T22:19:32.334Z,38.03
2019-01-11T22:22:03.169Z,35.10
2019-01-11T22:24:34.039Z,35.30
2019-01-11T22:27:06.215Z,35.83
2019-01-11T22:29:38.886Z,28.33
2019-01-11T22:32:09.993Z,27.90
2019-01-11T22:34:41.347Z,37.57
2019-01-11T22:37:12.480Z,31.23
2019-01-11T22:39:43.725Z,30.63
2019-01-11T22:42:14.655Z,34.37
2019-01-11T22:44:45.541Z,32.30
2019-01-11T22:47:16.629Z,39.43
2019-01-11T22:49:47.695Z,45.00
2019-01-11T22:52:18.673Z,51.13
2019-01-11T22:54:49.773Z,34.97
2019-01-11T22:57:21.121Z,37.87
2019-01-11T22:59:52.355Z,53.93
2019-01-11T23:02:25.961Z,35.90
2019-01-11T23:04:56.902Z,41.10
2019-01-11T23:07:29.397Z,37.83
2019-01-11T23:10:00.306Z,44.23
2019-01-11T23:12:40.354Z,29.57
2019-01-11T23:15:13.987Z,32.00
2019-01-11T23:17:48.819Z,42.80
2019-01-11T23:20:19.732Z,32.17
2019-01-11T23:22:50.616Z,38.00
2019-01-11T23:25:22.027Z,43.40
2019-01-11T23:27:52.909Z,42.20
2019-01-11T23:30:24.366Z,31.43
2019-01-11T23:32:55.555Z,31.20
2019-01-11T23:35:27.003Z,47.70
2019-01-11T23:37:58.246Z,42.53
2019-01-11T23:40:29.393Z,40.73
2019-01-11T23:43:00.223Z,35.27
2019-01-11T23:45:31.478Z,32.87
2019-01-11T23:48:02.623Z,36.27
2019-01-11T23:50:33.435Z,34.63
2019-01-11T23:53:04.696Z,35.90
2019-01-11T23:55:36.147Z,26.17
2019-01-11T23:58:07.027Z,33.80
